createdAt,value
2019-05-15T00:02:15.048Z,97420.00
2019-05-15T00:04:45.366Z,97421.00
2019-05-15T00:07:18.195Z,97412.00
2019-05-15T00:09:49.140Z,97413.00
2019-05-15T00:12:19.635Z,97403.00
2019-05-15T00:14:49.968Z,97413.00
2019-05-15T00:17:20.292Z,97407.00
2019-05-15T00:19:50.587Z,97401.00
2019-05-15T00:22:20.906Z,97405.00
2019-05-15T00:24:51.278Z,97393.00
2019-05-15T00:27:21.609Z,97389.00
2019-05-15T00:29:51.902Z,97394.00
2019-05-15T00:32:22.187Z,97386.00
2019-05-15T00:34:52.587Z,97388.00
2019-05-15T00:37:22.900Z,97380.00
2019-05-15T00:39:53.233Z,97382.00
2019-05-15T00:42:23.525Z,97371.00
2019-05-15T00:44:53.830Z,97382.00
2019-05-15T00:47:24.126Z,97377.00
2019-05-15T00:49:54.431Z,97372.00
2019-05-15T00:52:24.823Z,97372.00
2019-05-15T00:54:55.216Z,97366.00
2019-05-15T00:57:25.511Z,97374.00
2019-05-15T00:59:55.836Z,97370.00
2019-05-15T01:02:28.521Z,97365.00
2019-05-15T01:04:58.516Z,97361.00
2019-05-15T01:07:28.924Z,97349.00
2019-05-15T01:09:59.504Z,97346.00
2019-05-15T01:12:29.855Z,97350.00
2019-05-15T01:15:00.163Z,97352.00
2019-05-15T01:17:30.461Z,97340.00
2019-05-15T01:20:00.786Z,97343.00
2019-05-15T01:22:31.131Z,97345.00
2019-05-15T01:25:01.434Z,97345.00
2019-05-15T01:27:31.720Z,97349.00
2019-05-15T01:30:02.000Z,97332.00
2019-05-15T01:32:32.673Z,97330.00
2019-05-15T01:35:03.089Z,97328.00
2019-05-15T01:37:33.382Z,97329.00
2019-05-15T01:40:04.412Z,97325.00
2019-05-15T01:42:34.737Z,97326.00
2019-05-15T01:45:05.741Z,97313.00
2019-05-15T01:47:36.018Z,97318.00
2019-05-15T01:50:09.454Z,97308.00
2019-05-15T01:52:39.876Z,97324.00
2019-05-15T01:55:10.680Z,97307.00
2019-05-15T01:57:41.094Z,97312.00
2019-05-15T02:00:11.721Z,97308.00
2019-05-15T02:02:42.011Z,97311.00
2019-05-15T02:05:13.327Z,97311.00
2019-05-15T02:07:43.624Z,97311.00
2019-05-15T02:10:14.048Z,97308.00
2019-05-15T02:12:44.404Z,97297.00
2019-05-15T02:15:15.035Z,97297.00
2019-05-15T02:17:45.345Z,97292.00
2019-05-15T02:20:15.868Z,97295.00
2019-05-15T02:22:48.362Z,97301.00
2019-05-15T02:25:18.569Z,97302.00
2019-05-15T02:27:48.880Z,97307.00
2019-05-15T02:30:28.245Z,97303.00
2019-05-15T02:32:54.551Z,97286.00
2019-05-15T02:35:23.516Z,97296.00
2019-05-15T02:37:53.815Z,97290.00
2019-05-15T02:40:24.117Z,97299.00
2019-05-15T02:42:54.412Z,97298.00
2019-05-15T02:45:24.745Z,97299.00
2019-05-15T02:47:55.021Z,97285.00
2019-05-15T02:50:25.725Z,97289.00
2019-05-15T02:53:00.258Z,97276.00
2019-05-15T02:55:29.618Z,97271.00
2019-05-15T02:58:00.114Z,97282.00
2019-05-15T03:00:42.436Z,97280.00
2019-05-15T03:03:02.493Z,97280.00
2019-05-15T03:05:32.810Z,97271.00
2019-05-15T03:08:03.472Z,97271.00
2019-05-15T03:10:33.765Z,97279.00
2019-05-15T03:13:04.027Z,97276.00
2019-05-15T03:15:34.387Z,97274.00
2019-05-15T03:18:04.751Z,97267.00
2019-05-15T03:20:34.995Z,97262.00
2019-05-15T03:23:05.283Z,97262.00
2019-05-15T03:25:35.602Z,97259.00
2019-05-15T03:28:05.886Z,97248.00
2019-05-15T03:31:06.722Z,97257.00
2019-05-15T03:33:17.316Z,97254.00
2019-05-15T03:35:43.015Z,97249.00
2019-05-15T03:38:12.169Z,97262.00
2019-05-15T03:40:42.470Z,97263.00
2019-05-15T03:43:12.779Z,97266.00
2019-05-15T03:45:43.080Z,97255.00
2019-05-15T03:48:13.438Z,97262.00
2019-05-15T03:50:43.833Z,97267.00
2019-05-15T03:53:14.108Z,97260.00
2019-05-15T03:55:44.439Z,97253.00
2019-05-15T03:58:14.758Z,97264.00
2019-05-15T04:00:45.078Z,97264.00
2019-05-15T04:03:15.406Z,97267.00
2019-05-15T04:05:49.202Z,97261.00
2019-05-15T04:08:19.502Z,97271.00
2019-05-15T04:10:49.984Z,97274.00
2019-05-15T04:13:20.258Z,97265.00
2019-05-15T04:15:50.655Z,97262.00
2019-05-15T04:18:20.919Z,97259.00
2019-05-15T04:20:51.216Z,97266.00
2019-05-15T04:23:24.263Z,97265.00
2019-05-15T04:25:54.997Z,97263.00
2019-05-15T04:28:29.321Z,97260.00
2019-05-15T04:30:59.798Z,97262.00
2019-05-15T04:33:30.171Z,97262.00
2019-05-15T04:36:00.454Z,97256.00
2019-05-15T04:38:30.731Z,97244.00
2019-05-15T04:41:01.025Z,97243.00
2019-05-15T04:43:39.620Z,97247.00
2019-05-15T04:46:03.422Z,97244.00
2019-05-15T04:48:33.748Z,97252.00
2019-05-15T04:51:04.064Z,97249.00
2019-05-15T04:53:34.385Z,97247.00
2019-05-15T04:56:04.698Z,97248.00
2019-05-15T04:58:35.071Z,97240.00
2019-05-15T05:01:09.118Z,97249.00
2019-05-15T05:03:39.410Z,97240.00
2019-05-15T05:06:10.428Z,97235.00
2019-05-15T05:08:41.082Z,97235.00
2019-05-15T05:11:11.427Z,97231.00
2019-05-15T05:13:41.783Z,97232.00
2019-05-15T05:16:13.057Z,97229.00
2019-05-15T05:18:43.542Z,97230.00
2019-05-15T05:21:13.864Z,97231.00
2019-05-15T05:23:44.249Z,97231.00
2019-05-15T05:26:14.524Z,97237.00
2019-05-15T05:28:48.613Z,97235.00
2019-05-15T05:31:19.063Z,97243.00
2019-05-15T05:33:49.623Z,97242.00
2019-05-15T05:36:20.000Z,97242.00
2019-05-15T05:38:50.293Z,97256.00
2019-05-15T05:41:20.575Z,97246.00
2019-05-15T05:43:50.857Z,97243.00
2019-05-15T05:46:21.161Z,97243.00
2019-05-15T05:48:51.424Z,97245.00
2019-05-15T05:51:21.779Z,97236.00
2019-05-15T05:53:52.083Z,97227.00
2019-05-15T05:56:22.379Z,97239.00
2019-05-15T05:58:52.691Z,97236.00
2019-05-15T06:01:22.978Z,97232.00
2019-05-15T06:03:53.299Z,97227.00
2019-05-15T06:06:23.591Z,97235.00
2019-05-15T06:08:53.936Z,97230.00
2019-05-15T06:11:24.213Z,97232.00
2019-05-15T06:13:54.531Z,97232.00
2019-05-15T06:16:24.822Z,97232.00
2019-05-15T06:18:58.618Z,97226.00
2019-05-15T06:21:28.789Z,97226.00
2019-05-15T06:24:04.565Z,97231.00
2019-05-15T06:26:31.099Z,97234.00
2019-05-15T06:29:01.413Z,97238.00
2019-05-15T06:31:31.750Z,97244.00
2019-05-15T06:34:02.058Z,97252.00
2019-05-15T06:36:32.367Z,97248.00
2019-05-15T06:39:04.161Z,97234.00
2019-05-15T06:41:34.461Z,97230.00
2019-05-15T06:44:07.861Z,97255.00
2019-05-15T06:46:39.270Z,97240.00
2019-05-15T06:49:09.750Z,97247.00
2019-05-15T06:51:40.085Z,97246.00
2019-05-15T06:54:10.400Z,97244.00
2019-05-15T06:56:40.699Z,97243.00
2019-05-15T06:59:11.021Z,97235.00
2019-05-15T07:01:41.380Z,97240.00
2019-05-15T07:04:11.711Z,97241.00
2019-05-15T07:06:41.982Z,97242.00
2019-05-15T07:09:12.615Z,97244.00
2019-05-15T07:11:42.969Z,97252.00
2019-05-15T07:14:13.269Z,97247.00
2019-05-15T07:16:43.544Z,97260.00
2019-05-15T07:19:13.915Z,97260.00
2019-05-15T07:21:44.203Z,97261.00
2019-05-15T07:24:14.594Z,97253.00
2019-05-15T07:26:44.873Z,97259.00
2019-05-15T07:29:15.152Z,97257.00
2019-05-15T07:31:47.721Z,97253.00
2019-05-15T07:34:18.814Z,97255.00
2019-05-15T07:36:49.484Z,97253.00
2019-05-15T07:39:19.798Z,97255.00
2019-05-15T07:41:50.103Z,97249.00
2019-05-15T07:44:20.419Z,97260.00
2019-05-15T07:46:50.779Z,97253.00
2019-05-15T07:49:21.095Z,97241.00
2019-05-15T07:51:51.387Z,97264.00
2019-05-15T07:54:21.718Z,97253.00
2019-05-15T07:56:52.029Z,97244.00
2019-05-15T07:59:22.354Z,97238.00
2019-05-15T08:01:52.639Z,97242.00
2019-05-15T08:04:29.065Z,97247.00
2019-05-15T08:06:54.918Z,97254.00
2019-05-15T08:09:25.372Z,97257.00
2019-05-15T08:11:55.813Z,97245.00
2019-05-15T08:14:26.136Z,97253.00
2019-05-15T08:16:58.929Z,97257.00
2019-05-15T08:19:28.987Z,97255.00
2019-05-15T08:21:59.358Z,97257.00
2019-05-15T08:24:30.062Z,97259.00
2019-05-15T08:27:00.314Z,97257.00
2019-05-15T08:29:30.642Z,97260.00
2019-05-15T08:32:00.972Z,97257.00
2019-05-15T08:34:31.285Z,97257.00
2019-05-15T08:37:01.621Z,97247.00
2019-05-15T08:39:31.914Z,97248.00
2019-05-15T08:42:02.293Z,97258.00
2019-05-15T08:44:32.582Z,97248.00
2019-05-15T08:47:02.989Z,97255.00
2019-05-15T08:49:33.325Z,97259.00
2019-05-15T08:52:07.054Z,97254.00
2019-05-15T08:54:38.159Z,97248.00
2019-05-15T08:57:08.458Z,97243.00
2019-05-15T08:59:38.923Z,97245.00
2019-05-15T09:02:09.331Z,97243.00
2019-05-15T09:04:39.690Z,97242.00
2019-05-15T09:07:10.011Z,97247.00
2019-05-15T09:09:40.422Z,97239.00
2019-05-15T09:12:10.735Z,97235.00
2019-05-15T09:14:41.094Z,97254.00
2019-05-15T09:17:11.422Z,97238.00
2019-05-15T09:19:41.709Z,97238.00
2019-05-15T09:22:12.008Z,97235.00
2019-05-15T09:24:42.285Z,97232.00
2019-05-15T09:27:12.575Z,97234.00
2019-05-15T09:29:42.848Z,97228.00
2019-05-15T09:32:13.169Z,97219.00
2019-05-15T09:34:50.930Z,97206.00
2019-05-15T09:37:17.907Z,97217.00
2019-05-15T09:39:48.994Z,97217.00
2019-05-15T09:42:19.799Z,97216.00
2019-05-15T09:44:50.067Z,97212.00
2019-05-15T09:47:20.435Z,97208.00
2019-05-15T09:49:50.723Z,97205.00
2019-05-15T09:52:23.075Z,97199.00
2019-05-15T09:54:53.102Z,97200.00
2019-05-15T09:57:23.413Z,97205.00
2019-05-15T09:59:53.766Z,97192.00
2019-05-15T10:02:24.101Z,97189.00
2019-05-15T10:05:06.203Z,97190.00
2019-05-15T10:07:28.550Z,97184.00
2019-05-15T10:09:58.484Z,97190.00
2019-05-15T10:12:34.548Z,97189.00
2019-05-15T10:15:00.973Z,97188.00
2019-05-15T10:17:32.292Z,97182.00
2019-05-15T10:20:02.661Z,97183.00
2019-05-15T10:22:32.934Z,97185.00
2019-05-15T10:25:04.195Z,97174.00
2019-05-15T10:27:34.520Z,97181.00
2019-05-15T10:30:09.260Z,97176.00
2019-05-15T10:32:39.987Z,97173.00
2019-05-15T10:35:24.653Z,97182.00
2019-05-15T10:37:43.927Z,97184.00
2019-05-15T10:40:14.486Z,97180.00
2019-05-15T10:42:44.808Z,97177.00
2019-05-15T10:45:15.448Z,97173.00
2019-05-15T10:47:45.751Z,97168.00
2019-05-15T10:50:18.981Z,97175.00
2019-05-15T10:52:49.040Z,97175.00
2019-05-15T10:55:19.983Z,97159.00
2019-05-15T10:57:50.609Z,97166.00
2019-05-15T11:00:21.444Z,97164.00
2019-05-15T11:02:51.796Z,97161.00
2019-05-15T11:05:30.775Z,97157.00
2019-05-15T11:07:54.245Z,97154.00
2019-05-15T11:10:24.892Z,97156.00
2019-05-15T11:12:55.203Z,97153.00
2019-05-15T11:15:25.663Z,97151.00
2019-05-15T11:17:58.295Z,97151.00
2019-05-15T11:20:28.018Z,97154.00
2019-05-15T11:22:59.074Z,97152.00
2019-05-15T11:25:30.568Z,97149.00
2019-05-15T11:28:00.887Z,97152.00
2019-05-15T11:30:31.241Z,97143.00
2019-05-15T11:33:01.601Z,97145.00
2019-05-15T11:35:31.882Z,97154.00
2019-05-15T11:38:02.272Z,97150.00
2019-05-15T11:40:32.559Z,97146.00
2019-05-15T11:43:03.069Z,97151.00
2019-05-15T11:45:33.392Z,97157.00
2019-05-15T11:48:04.057Z,97147.00
2019-05-15T11:50:34.344Z,97150.00
2019-05-15T11:53:04.650Z,97143.00
2019-05-15T11:55:34.990Z,97144.00
2019-05-15T11:58:05.403Z,97157.00
2019-05-15T12:00:38.149Z,97146.00
2019-05-15T12:03:08.951Z,97143.00
2019-05-15T12:05:39.431Z,97144.00
2019-05-15T12:08:12.475Z,97152.00
2019-05-15T12:10:41.749Z,97150.00
2019-05-15T12:13:12.343Z,97143.00
2019-05-15T12:15:42.667Z,97147.00
2019-05-15T12:18:12.994Z,97143.00
2019-05-15T12:20:43.276Z,97138.00
2019-05-15T12:23:13.581Z,97144.00
2019-05-15T12:25:43.898Z,97146.00
2019-05-15T12:28:14.218Z,97155.00
2019-05-15T12:30:44.489Z,97150.00
2019-05-15T12:33:14.802Z,97149.00
2019-05-15T12:35:45.111Z,97143.00
2019-05-15T12:38:18.080Z,97150.00
2019-05-15T13:01:16.493Z,97140.00
2019-05-15T13:03:38.305Z,97140.00
2019-05-15T13:06:08.672Z,97139.00
2019-05-15T13:08:38.977Z,97144.00
2019-05-15T13:11:14.685Z,97137.00
2019-05-15T13:13:41.452Z,97139.00
2019-05-15T13:16:11.764Z,97134.00
2019-05-15T13:18:42.025Z,97130.00
2019-05-15T13:21:12.351Z,97126.00
2019-05-15T13:23:42.653Z,97138.00
2019-05-15T13:26:23.390Z,97136.00
2019-05-15T13:28:44.963Z,97137.00
2019-05-15T13:31:15.252Z,97135.00
2019-05-15T13:33:47.987Z,97136.00
2019-05-15T13:36:19.921Z,97130.00
2019-05-15T13:38:49.539Z,97130.00
2019-05-15T13:41:19.836Z,97135.00
2019-05-15T13:43:50.157Z,97130.00
2019-05-15T13:46:20.916Z,97128.00
2019-05-15T13:48:51.208Z,97138.00
2019-05-15T13:51:21.498Z,97133.00
2019-05-15T13:53:53.631Z,97133.00
2019-05-15T13:56:24.823Z,97135.00
2019-05-15T13:58:55.150Z,97132.00
2019-05-15T14:01:25.461Z,97130.00
2019-05-15T14:03:55.693Z,97121.00
2019-05-15T14:06:28.438Z,97126.00
2019-05-15T14:08:58.253Z,97121.00
2019-05-15T14:11:31.008Z,97123.00
2019-05-15T14:14:00.407Z,97131.00
2019-05-15T14:16:30.734Z,97138.00
2019-05-15T14:19:00.999Z,97127.00
2019-05-15T14:21:31.333Z,97132.00
2019-05-15T14:24:01.850Z,97127.00
2019-05-15T14:26:32.441Z,97129.00
2019-05-15T14:29:05.615Z,97126.00
2019-05-15T14:31:36.544Z,97125.00
2019-05-15T14:34:08.642Z,97114.00
2019-05-15T14:36:38.577Z,97122.00
2019-05-15T14:39:09.127Z,97123.00
2019-05-15T14:41:39.383Z,97123.00
2019-05-15T14:44:17.428Z,97113.00
2019-05-15T14:46:41.599Z,97123.00
2019-05-15T14:49:11.858Z,97122.00
2019-05-15T14:51:42.123Z,97125.00
2019-05-15T14:54:12.369Z,97122.00
2019-05-15T14:56:42.909Z,97125.00
2019-05-15T14:59:13.167Z,97116.00
2019-05-15T15:01:59.470Z,97110.00
2019-05-15T15:04:29.721Z,97115.00
2019-05-15T15:06:59.978Z,97116.00
2019-05-15T15:09:30.227Z,97124.00
2019-05-15T15:12:00.517Z,97125.00
2019-05-15T15:14:30.800Z,97125.00
2019-05-15T15:17:01.115Z,97120.00
2019-05-15T15:19:32.139Z,97118.00
2019-05-15T15:22:02.402Z,97116.00
2019-05-15T15:24:32.938Z,97117.00
2019-05-15T15:27:03.208Z,97123.00
2019-05-15T15:29:33.642Z,97120.00
2019-05-15T15:32:03.917Z,97125.00
2019-05-15T15:34:34.158Z,97125.00
2019-05-15T15:37:04.432Z,97128.00
2019-05-15T15:39:34.677Z,97129.00
2019-05-15T15:42:05.325Z,97126.00
2019-05-15T15:44:37.895Z,97120.00
2019-05-15T15:47:08.610Z,97119.00
2019-05-15T15:49:39.045Z,97122.00
2019-05-15T15:52:09.319Z,97118.00
2019-05-15T15:54:40.543Z,97122.00
2019-05-15T15:57:11.074Z,97126.00
2019-05-15T15:59:41.347Z,97124.00
2019-05-15T16:02:11.616Z,97125.00
2019-05-15T16:04:41.863Z,97122.00
2019-05-15T16:07:12.130Z,97126.00
2019-05-15T16:09:42.396Z,97123.00
2019-05-15T16:12:12.935Z,97121.00
2019-05-15T16:14:43.215Z,97124.00
2019-05-15T16:17:13.484Z,97111.00
2019-05-15T16:19:43.806Z,97126.00
2019-05-15T16:22:14.073Z,97130.00
2019-05-15T16:24:44.321Z,97121.00
2019-05-15T16:27:14.583Z,97119.00
2019-05-15T16:29:44.841Z,97121.00
2019-05-15T16:32:18.543Z,97119.00
2019-05-15T16:34:47.920Z,97124.00
2019-05-15T16:37:18.849Z,97115.00
2019-05-15T16:39:49.366Z,97109.00
2019-05-15T16:42:19.635Z,97116.00
2019-05-15T16:44:49.883Z,97104.00
2019-05-15T16:47:20.149Z,97113.00
2019-05-15T16:49:50.755Z,97115.00
2019-05-15T16:52:21.020Z,97124.00
2019-05-15T16:54:51.297Z,97124.00
2019-05-15T16:57:21.524Z,97118.00
2019-05-15T16:59:51.770Z,97118.00
2019-05-15T17:02:22.030Z,97108.00
2019-05-15T17:04:52.281Z,97109.00
2019-05-15T17:07:22.541Z,97114.00
2019-05-15T17:09:52.787Z,97119.00
2019-05-15T17:12:23.056Z,97107.00
2019-05-15T17:14:53.318Z,97106.00
2019-05-15T17:17:23.857Z,97110.00
2019-05-15T17:19:54.105Z,97114.00
2019-05-15T17:22:24.651Z,97115.00
2019-05-15T17:24:58.171Z,97107.00
2019-05-15T17:27:28.875Z,97116.00
2019-05-15T17:30:00.904Z,97117.00
2019-05-15T17:32:31.187Z,97115.00
2019-05-15T17:35:01.455Z,97110.00
2019-05-15T17:37:31.870Z,97116.00
2019-05-15T17:40:02.141Z,97118.00
2019-05-15T17:42:32.707Z,97116.00
2019-05-15T17:45:02.977Z,97119.00
2019-05-15T17:47:33.238Z,97116.00
2019-05-15T17:50:03.728Z,97118.00
2019-05-15T17:52:33.983Z,97105.00
2019-05-15T17:55:05.997Z,97104.00
2019-05-15T17:57:38.707Z,97110.00
2019-05-15T18:00:28.597Z,97106.00
2019-05-15T18:02:59.054Z,97109.00
2019-05-15T18:05:29.311Z,97115.00
2019-05-15T18:07:59.570Z,97114.00
2019-05-15T18:10:29.818Z,97117.00
2019-05-15T18:13:00.159Z,97112.00
2019-05-15T18:15:30.451Z,97107.00
2019-05-15T18:18:00.737Z,97117.00
2019-05-15T18:20:31.065Z,97112.00
2019-05-15T18:23:01.331Z,97111.00
2019-05-15T18:25:31.592Z,97111.00
2019-05-15T18:28:01.841Z,97110.00
2019-05-15T18:30:32.107Z,97106.00
2019-05-15T18:33:02.355Z,97113.00
2019-05-15T18:35:33.031Z,97111.00
2019-05-15T18:38:03.247Z,97113.00
2019-05-15T18:40:33.510Z,97115.00
2019-05-15T18:43:04.062Z,97111.00
2019-05-15T18:45:34.692Z,97109.00
2019-05-15T18:48:05.011Z,97100.00
2019-05-15T18:50:37.650Z,97109.00
2019-05-15T18:53:08.941Z,97105.00
2019-05-15T18:55:39.431Z,97106.00
2019-05-15T18:58:09.682Z,97104.00
2019-05-15T19:00:40.217Z,97112.00
2019-05-15T19:03:19.313Z,97114.00
2019-05-15T19:05:42.426Z,97116.00
2019-05-15T19:08:12.845Z,97115.00
2019-05-15T19:10:43.106Z,97121.00
2019-05-15T19:13:13.362Z,97122.00
2019-05-15T19:15:44.145Z,97117.00
2019-05-15T19:18:14.402Z,97123.00
2019-05-15T19:20:44.731Z,97115.00
2019-05-15T19:23:14.983Z,97121.00
2019-05-15T19:25:45.243Z,97136.00
2019-05-15T19:28:15.496Z,97132.00
2019-05-15T19:30:47.992Z,97131.00
2019-05-15T19:33:26.491Z,97129.00
2019-05-15T19:35:50.039Z,97130.00
2019-05-15T19:38:20.287Z,97132.00
2019-05-15T19:40:50.557Z,97134.00
2019-05-15T19:43:20.804Z,97131.00
2019-05-15T19:45:51.087Z,97130.00
2019-05-15T19:48:21.346Z,97127.00
2019-05-15T19:50:52.581Z,97133.00
2019-05-15T19:53:22.961Z,97127.00
2019-05-15T19:55:53.303Z,97129.00
2019-05-15T19:58:23.624Z,97126.00
2019-05-15T20:00:53.886Z,97125.00
2019-05-15T20:03:24.146Z,97124.00
2019-05-15T20:05:54.401Z,97118.00
2019-05-15T20:08:24.654Z,97128.00
2019-05-15T20:10:54.909Z,97123.00
2019-05-15T20:13:25.165Z,97130.00
2019-05-15T20:15:57.858Z,97129.00
2019-05-15T20:18:27.872Z,97128.00
2019-05-15T20:20:58.598Z,97132.00
2019-05-15T20:23:28.995Z,97130.00
2019-05-15T20:25:59.276Z,97135.00
2019-05-15T20:28:29.536Z,97122.00
2019-05-15T20:30:59.876Z,97129.00
2019-05-15T20:33:30.305Z,97122.00
2019-05-15T20:36:01.055Z,97119.00
2019-05-15T20:38:31.310Z,97116.00
2019-05-15T20:41:01.575Z,97109.00
2019-05-15T20:43:32.897Z,97115.00
2019-05-15T20:46:03.245Z,97111.00
2019-05-15T20:48:33.495Z,97111.00
2019-05-15T20:51:03.867Z,97107.00
2019-05-15T20:53:34.090Z,97117.00
2019-05-15T20:56:04.353Z,97112.00
2019-05-15T20:58:34.675Z,97113.00
2019-05-15T21:01:05.691Z,97111.00
2019-05-15T21:03:35.944Z,97103.00
2019-05-15T21:06:08.706Z,97092.00
2019-05-15T21:08:38.175Z,97096.00
2019-05-15T21:11:11.833Z,97093.00
2019-05-15T21:13:40.462Z,97091.00
2019-05-15T21:16:10.897Z,97094.00
2019-05-15T21:18:41.540Z,97087.00
2019-05-15T21:21:11.996Z,97087.00
2019-05-15T21:23:42.265Z,97081.00
2019-05-15T21:26:12.549Z,97081.00
2019-05-15T21:28:43.148Z,97088.00
2019-05-15T21:31:13.636Z,97088.00
2019-05-15T21:33:43.893Z,97076.00
2019-05-15T21:36:15.499Z,97079.00
2019-05-15T21:38:47.911Z,97072.00
2019-05-15T21:41:18.851Z,97071.00
2019-05-15T21:43:50.569Z,97065.00
2019-05-15T21:46:20.956Z,97067.00
2019-05-15T21:48:51.210Z,97074.00
2019-05-15T21:51:21.472Z,97060.00
2019-05-15T21:53:51.725Z,97055.00
2019-05-15T21:56:21.990Z,97061.00
2019-05-15T21:58:52.245Z,97059.00
2019-05-15T22:01:22.823Z,97058.00
2019-05-15T22:03:54.285Z,97059.00
2019-05-15T22:06:24.620Z,97050.00
2019-05-15T22:08:54.870Z,97055.00
2019-05-15T22:11:28.905Z,97047.00
2019-05-15T22:13:58.729Z,97047.00
2019-05-15T22:16:29.191Z,97050.00
2019-05-15T22:18:59.446Z,97049.00
2019-05-15T22:21:29.779Z,97042.00
2019-05-15T22:24:00.373Z,97041.00
2019-05-15T22:26:30.647Z,97036.00
2019-05-15T22:29:00.961Z,97032.00
2019-05-15T22:31:31.518Z,97011.00
2019-05-15T22:34:01.770Z,97015.00
2019-05-15T22:36:33.011Z,97016.00
2019-05-15T22:39:04.650Z,97024.00
2019-05-15T22:41:34.979Z,97011.00
2019-05-15T22:44:05.512Z,97009.00
2019-05-15T22:46:38.259Z,97005.00
2019-05-15T22:49:08.596Z,97014.00
2019-05-15T22:51:38.924Z,96998.00
2019-05-15T22:54:09.171Z,96998.00
2019-05-15T22:56:39.434Z,96997.00
2019-05-15T22:59:09.684Z,96987.00
2019-05-15T23:01:40.229Z,96992.00
2019-05-15T23:04:10.480Z,96988.00
2019-05-15T23:06:40.760Z,96988.00
2019-05-15T23:09:11.019Z,96987.00
2019-05-15T23:11:41.283Z,96977.00
2019-05-15T23:14:11.544Z,96977.00
2019-05-15T23:16:42.081Z,96976.00
2019-05-15T23:19:12.350Z,96976.00
2019-05-15T23:21:42.607Z,96974.00
2019-05-15T23:24:12.886Z,96977.00
2019-05-15T23:26:43.128Z,96975.00
2019-05-15T23:29:14.464Z,96971.00
2019-05-15T23:31:44.806Z,96963.00
2019-05-15T23:34:15.076Z,96956.00
2019-05-15T23:36:45.366Z,96955.00
2019-05-15T23:39:15.622Z,96948.00
2019-05-15T23:41:45.870Z,96957.00
2019-05-15T23:44:18.244Z,96956.00
2019-05-15T23:46:48.753Z,96943.00
2019-05-15T23:49:19.871Z,96948.00
2019-05-15T23:51:50.272Z,96953.00
2019-05-15T23:54:20.542Z,96932.00
2019-05-15T23:56:50.784Z,96927.00
2019-05-15T23:59:21.054Z,96927.00
